Terminal Aerodrome Forecast
Issued by NWS Paducah, KY

Home | Current Version | Previous Version | Text Only | Print | Product List | Glossary On
Versions: 1 2 3 4 5 6 7 8 9 10 11 12
174
FTUS43 KPAH 122320
TAFPAH
TAF
KPAH 122320Z 1300/1324 VRB03KT P6SM SKC
     FM131000 21004KT P6SM SKC
     FM131500 21016G28KT P6SM FEW250
     FM132300 24012KT P6SM FEW250=

USA.gov is the U.S. government's official web portal to all federal, state and local government web resources and services.